地図

経路データ

SID SEASON NUMBER BASIN SUBBASIN NAME ISO_TIME NATURE LAT LON WMO_WIND WMO_PRES WMO_AGENCY TRACK_TYPE DIST2LAND LANDFALL IFLAG USA_AGENCY USA_ATCF_ID USA_LAT USA_LON USA_RECORD USA_STATUS USA_WIND USA_PRES USA_SSHS USA_R34_NE USA_R34_SE USA_R34_SW USA_R34_NW USA_R50_NE USA_R50_SE USA_R50_SW USA_R50_NW USA_R64_NE USA_R64_SE USA_R64_SW USA_R64_NW USA_POCI USA_ROCI USA_RMW USA_EYE TOKYO_LAT TOKYO_LON TOKYO_GRADE TOKYO_WIND TOKYO_PRES TOKYO_R50_DIR TOKYO_R50_LONG TOKYO_R50_SHORT TOKYO_R30_DIR TOKYO_R30_LONG TOKYO_R30_SHORT TOKYO_LAND CMA_LAT CMA_LON CMA_CAT CMA_WIND CMA_PRES HKO_LAT HKO_LON HKO_CAT HKO_WIND HKO_PRES NEWDELHI_LAT NEWDELHI_LON NEWDELHI_GRADE NEWDELHI_WIND NEWDELHI_PRES NEWDELHI_CI NEWDELHI_DP NEWDELHI_POCI REUNION_LAT REUNION_LON REUNION_TYPE REUNION_WIND REUNION_PRES REUNION_TNUM REUNION_CI REUNION_RMW REUNION_R34_NE REUNION_R34_SE REUNION_R34_SW REUNION_R34_NW REUNION_R50_NE REUNION_R50_SE REUNION_R50_SW REUNION_R50_NW REUNION_R64_NE REUNION_R64_SE REUNION_R64_SW REUNION_R64_NW BOM_LAT BOM_LON BOM_TYPE BOM_WIND BOM_PRES BOM_TNUM BOM_CI BOM_RMW BOM_R34_NE BOM_R34_SE BOM_R34_SW BOM_R34_NW BOM_R50_NE BOM_R50_SE BOM_R50_SW BOM_R50_NW BOM_R64_NE BOM_R64_SE BOM_R64_SW BOM_R64_NW BOM_ROCI BOM_POCI BOM_EYE BOM_POS_METHOD BOM_PRES_METHOD NADI_LAT NADI_LON NADI_CAT NADI_WIND NADI_PRES WELLINGTON_LAT WELLINGTON_LON WELLINGTON_WIND WELLINGTON_PRES DS824_LAT DS824_LON DS824_STAGE DS824_WIND DS824_PRES TD9636_LAT TD9636_LON TD9636_STAGE TD9636_WIND TD9636_PRES TD9635_LAT TD9635_LON TD9635_WIND TD9635_PRES TD9635_ROCI NEUMANN_LAT NEUMANN_LON NEUMANN_CLASS NEUMANN_WIND NEUMANN_PRES MLC_LAT MLC_LON MLC_CLASS MLC_WIND MLC_PRES USA_GUST BOM_GUST BOM_GUST_PER REUNION_GUST REUNION_GUST_PER USA_SEAHGT USA_SEARAD_NE USA_SEARAD_SE USA_SEARAD_SW USA_SEARAD_NW STORM_SPEED STORM_DIR
1990236N14264 1990 75 EP MM LOWELL 1990-08-23 18:00:00 TS 14.0000 -96.5000 20 1011 hurdat_epa main 179 179 O_____________ hurdat_epa EP151990 14.0000 -96.5000 TD 20 1011 -1 11 274
1990236N14264 1990 75 EP MM LOWELL 1990-08-23 21:00:00 TS 14.0353 -97.0525 main 187 179 P_____________ EP151990 14.0353 -97.0525 TD 22 1011 -1 11 275
1990236N14264 1990 75 EP MM LOWELL 1990-08-24 00:00:00 TS 14.1000 -97.6000 25 1011 hurdat_epa main 198 198 O_____________ hurdat_epa EP151990 14.1000 -97.6000 TD 25 1011 -1 11 280
1990236N14264 1990 75 EP MM LOWELL 1990-08-24 03:00:00 TS 14.2198 -98.1426 main 204 197 P_____________ EP151990 14.2198 -98.1426 TD 25 1011 -1 11 286
1990236N14264 1990 75 EP MM LOWELL 1990-08-24 06:00:00 TS 14.4000 -98.7000 25 1011 hurdat_epa main 203 197 O_____________ hurdat_epa EP151990 14.4000 -98.7000 TD 25 1011 -1 12 291
1990236N14264 1990 75 EP MM LOWELL 1990-08-24 09:00:00 TS 14.6348 -99.2776 main 204 193 P_____________ EP151990 14.6348 -99.2776 TD 25 1011 -1 13 293
1990236N14264 1990 75 EP MM LOWELL 1990-08-24 12:00:00 TS 14.9000 -99.9000 25 1011 hurdat_epa main 202 190 O_____________ hurdat_epa EP151990 14.9000 -99.9000 TD 25 1011 -1 14 292
1990236N14264 1990 75 EP MM LOWELL 1990-08-24 15:00:00 TS 15.1500 -100.593 main 203 193 P_____________ EP151990 15.1500 -100.593 TD 25 1010 -1 14 290
1990236N14264 1990 75 EP MM LOWELL 1990-08-24 18:00:00 TS 15.4000 -101.300 25 1010 hurdat_epa main 208 200 O_____________ hurdat_epa EP151990 15.4000 -101.300 TD 25 1010 -1 14 291
1990236N14264 1990 75 EP MM LOWELL 1990-08-24 21:00:00 TS 15.6574 -101.973 main 203 203 P_____________ EP151990 15.6574 -101.973 TD 27 1010 -1 14 292
1990236N14264 1990 75 EP MM LOWELL 1990-08-25 00:00:00 TS 15.9000 -102.600 30 1010 hurdat_epa main 223 218 O_____________ hurdat_epa EP151990 15.9000 -102.600 TD 30 1010 -1 12 291
1990236N14264 1990 75 EP MM LOWELL 1990-08-25 03:00:00 TS 16.0847 -103.158 main 221 214 P_____________ EP151990 16.0847 -103.158 TD 30 1009 -1 11 291
1990236N14264 1990 75 EP MM LOWELL 1990-08-25 06:00:00 TS 16.3000 -103.700 30 1009 hurdat_epa main 218 204 O_____________ hurdat_epa EP151990 16.3000 -103.700 TD 30 1009 -1 12 297
1990236N14264 1990 75 EP MM LOWELL 1990-08-25 09:00:00 TS 16.6273 -104.285 main 208 198 P_____________ EP151990 16.6273 -104.285 TD 30 1008 -1 13 301
1990236N14264 1990 75 EP MM LOWELL 1990-08-25 12:00:00 TS 17.0000 -104.900 30 1007 hurdat_epa main 207 207 O_____________ hurdat_epa EP151990 17.0000 -104.900 TD 30 1007 -1 14 301
1990236N14264 1990 75 EP MM LOWELL 1990-08-25 15:00:00 TS 17.3574 -105.550 main 218 212 P_____________ EP151990 17.3574 -105.550 TD 32 1006 -1 14 299
1990236N14264 1990 75 EP MM LOWELL 1990-08-25 18:00:00 TS 17.7000 -106.200 35 1005 hurdat_epa main 223 222 O_____________ hurdat_epa EP151990 17.7000 -106.200 TS 35 1005 0 14 299
1990236N14264 1990 75 EP MM LOWELL 1990-08-25 21:00:00 TS 18.0223 -106.815 main 245 245 P_____________ EP151990 18.0223 -106.815 TS 37 1003 0 13 298
1990236N14264 1990 75 EP MM LOWELL 1990-08-26 00:00:00 TS 18.3000 -107.400 40 1002 hurdat_epa main 270 270 O_____________ hurdat_epa EP151990 18.3000 -107.400 TS 40 1002 0 12 295
1990236N14264 1990 75 EP MM LOWELL 1990-08-26 03:00:00 TS 18.5223 -107.965 main 311 311 P_____________ EP151990 18.5223 -107.965 TS 42 1000 0 11 291
1990236N14264 1990 75 EP MM LOWELL 1990-08-26 06:00:00 TS 18.7000 -108.500 45 999 hurdat_epa main 346 346 O_____________ hurdat_epa EP151990 18.7000 -108.500 TS 45 999 0 10 289
1990236N14264 1990 75 EP MM LOWELL 1990-08-26 09:00:00 TS 18.8573 -109.008 main 384 384 P_____________ EP151990 18.8573 -109.008 TS 47 997 0 10 288
1990236N14264 1990 75 EP MM LOWELL 1990-08-26 12:00:00 TS 19.0000 -109.500 50 996 hurdat_epa main 427 413 O_____________ hurdat_epa EP151990 19.0000 -109.500 TS 50 996 0 10 288
1990236N14264 1990 75 EP MM LOWELL 1990-08-26 15:00:00 TS 19.1649 -110.000 main 413 403 P_____________ EP151990 19.1649 -110.000 TS 52 994 0 10 288
1990236N14264 1990 75 EP MM LOWELL 1990-08-26 18:00:00 TS 19.3000 -110.500 55 992 hurdat_epa main 405 402 O_____________ hurdat_epa EP151990 19.3000 -110.500 TS 55 992 0 10 282
1990236N14264 1990 75 EP MM LOWELL 1990-08-26 21:00:00 TS 19.3649 -111.000 main 404 404 P_____________ EP151990 19.3649 -111.000 TS 57 990 0 9 276
1990236N14264 1990 75 EP MM LOWELL 1990-08-27 00:00:00 TS 19.4000 -111.500 60 989 hurdat_epa main 421 421 O_____________ hurdat_epa EP151990 19.4000 -111.500 TS 60 989 0 9 276
1990236N14264 1990 75 EP MM LOWELL 1990-08-27 03:00:00 TS 19.4573 -111.992 main 433 433 P_____________ EP151990 19.4573 -111.992 TS 62 988 0 9 276
1990236N14264 1990 75 EP MM LOWELL 1990-08-27 06:00:00 TS 19.5000 -112.500 65 987 hurdat_epa main 460 460 O_____________ hurdat_epa EP151990 19.5000 -112.500 HU 65 987 1 10 273
1990236N14264 1990 75 EP MM LOWELL 1990-08-27 09:00:00 TS 19.5148 -113.027 main 491 491 P_____________ EP151990 19.5148 -113.027 HU 65 987 1 10 270
1990236N14264 1990 75 EP MM LOWELL 1990-08-27 12:00:00 TS 19.5000 -113.600 65 987 hurdat_epa main 532 532 O_____________ hurdat_epa EP151990 19.5000 -113.600 HU 65 987 1 11 268
1990236N14264 1990 75 EP MM LOWELL 1990-08-27 15:00:00 TS 19.4724 -114.235 main 577 577 P_____________ EP151990 19.4724 -114.235 HU 65 987 1 12 265
1990236N14264 1990 75 EP MM LOWELL 1990-08-27 18:00:00 TS 19.4000 -114.900 65 987 hurdat_epa main 641 641 O_____________ hurdat_epa EP151990 19.4000 -114.900 HU 65 987 1 13 261
1990236N14264 1990 75 EP MM LOWELL 1990-08-27 21:00:00 TS 19.2723 -115.550 main 695 695 P_____________ EP151990 19.2723 -115.550 HU 65 986 1 13 256
1990236N14264 1990 75 EP MM LOWELL 1990-08-28 00:00:00 TS 19.1000 -116.200 65 986 hurdat_epa main 755 755 O_____________ hurdat_epa EP151990 19.1000 -116.200 HU 65 986 1 13 253
1990236N14264 1990 75 EP MM LOWELL 1990-08-28 03:00:00 TS 18.8924 -116.858 main 815 815 P_____________ EP151990 18.8924 -116.858 HU 65 986 1 13 252
1990236N14264 1990 75 EP MM LOWELL 1990-08-28 06:00:00 TS 18.7000 -117.500 65 987 hurdat_epa main 872 872 O_____________ hurdat_epa EP151990 18.7000 -117.500 HU 65 987 1 12 256
1990236N14264 1990 75 EP MM LOWELL 1990-08-28 09:00:00 TS 18.5923 -118.115 main 921 921 P_____________ EP151990 18.5923 -118.115 HU 65 987 1 12 260
1990236N14264 1990 75 EP MM LOWELL 1990-08-28 12:00:00 TS 18.5000 -118.700 65 987 hurdat_epa main 972 972 O_____________ hurdat_epa EP151990 18.5000 -118.700 HU 65 987 1 11 258
1990236N14264 1990 75 EP MM LOWELL 1990-08-28 15:00:00 TS 18.3499 -119.273 main 1032 1032 P_____________ EP151990 18.3499 -119.273 HU 62 987 0 11 254
1990236N14264 1990 75 EP MM LOWELL 1990-08-28 18:00:00 TS 18.2000 -119.800 60 988 hurdat_epa main 1077 1077 O_____________ hurdat_epa EP151990 18.2000 -119.800 TS 60 988 0 10 254
1990236N14264 1990 75 EP MM LOWELL 1990-08-28 21:00:00 TS 18.0848 -120.265 main 1123 1123 P_____________ EP151990 18.0848 -120.265 TS 60 989 0 9 257
1990236N14264 1990 75 EP MM LOWELL 1990-08-29 00:00:00 TS 18.0000 -120.700 60 991 hurdat_epa main 1162 1162 O_____________ hurdat_epa EP151990 18.0000 -120.700 TS 60 991 0 9 259
1990236N14264 1990 75 EP MM LOWELL 1990-08-29 03:00:00 TS 17.9274 -121.150 main 1209 1209 P_____________ EP151990 17.9274 -121.150 TS 57 992 0 9 263
1990236N14264 1990 75 EP MM LOWELL 1990-08-29 06:00:00 TS 17.9000 -121.600 55 993 hurdat_epa main 1241 1241 O_____________ hurdat_epa EP151990 17.9000 -121.600 TS 55 993 0 9 269
1990236N14264 1990 75 EP MM LOWELL 1990-08-29 09:00:00 TS 17.9199 -122.050 main 1282 1282 P_____________ EP151990 17.9199 -122.050 TS 55 994 0 9 277
1990236N14264 1990 75 EP MM LOWELL 1990-08-29 12:00:00 TS 18.0000 -122.500 55 995 hurdat_epa main 1308 1308 O_____________ hurdat_epa EP151990 18.0000 -122.500 TS 55 995 0 9 284
1990236N14264 1990 75 EP MM LOWELL 1990-08-29 15:00:00 TS 18.1274 -122.950 main 1344 1336 P_____________ EP151990 18.1274 -122.950 TS 52 995 0 9 289
1990236N14264 1990 75 EP MM LOWELL 1990-08-29 18:00:00 TS 18.3000 -123.400 50 996 hurdat_epa main 1355 1354 O_____________ hurdat_epa EP151990 18.3000 -123.400 TS 50 996 0 9 293
1990236N14264 1990 75 EP MM LOWELL 1990-08-29 21:00:00 TS 18.4848 -123.843 main 1365 1365 P_____________ EP151990 18.4848 -123.843 TS 50 996 0 9 295
1990236N14264 1990 75 EP MM LOWELL 1990-08-30 00:00:00 TS 18.7000 -124.300 50 997 hurdat_epa main 1382 1381 O_____________ hurdat_epa EP151990 18.7000 -124.300 TS 50 997 0 10 298
1990236N14264 1990 75 EP MM LOWELL 1990-08-30 03:00:00 TS 18.9573 -124.777 main 1393 1393 P_____________ EP151990 18.9573 -124.777 TS 47 997 0 11 298
1990236N14264 1990 75 EP MM LOWELL 1990-08-30 06:00:00 TS 19.2000 -125.300 45 998 hurdat_epa main 1414 1414 O_____________ hurdat_epa EP151990 19.2000 -125.300 TS 45 998 0 11 292
1990236N14264 1990 75 EP MM LOWELL 1990-08-30 09:00:00 TS 19.3724 -125.885 main 1445 1445 P_____________ EP151990 19.3724 -125.885 TS 45 999 0 12 285
1990236N14264 1990 75 EP MM LOWELL 1990-08-30 12:00:00 TS 19.5000 -126.500 45 1000 hurdat_epa main 1485 1485 O_____________ hurdat_epa EP151990 19.5000 -126.500 TS 45 1000 0 12 282
1990236N14264 1990 75 EP MM LOWELL 1990-08-30 15:00:00 TS 19.6074 -127.108 main 1527 1527 P_____________ EP151990 19.6074 -127.108 TS 42 1000 0 11 280
1990236N14264 1990 75 EP MM LOWELL 1990-08-30 18:00:00 TS 19.7000 -127.700 40 1001 hurdat_epa main 1569 1569 O_____________ hurdat_epa EP151990 19.7000 -127.700 TS 40 1001 0 11 281
1990236N14264 1990 75 EP MM LOWELL 1990-08-30 21:00:00 TS 19.8072 -128.250 main 1613 1613 P_____________ EP151990 19.8072 -128.250 TS 37 1002 0 11 281
1990236N14264 1990 75 EP MM LOWELL 1990-08-31 00:00:00 TS 19.9000 -128.800 35 1003 hurdat_epa main 1650 1650 O_____________ hurdat_epa EP151990 19.9000 -128.800 TS 35 1003 0 11 278
1990236N14264 1990 75 EP MM LOWELL 1990-08-31 03:00:00 TS 19.9574 -129.393 main 1695 1695 P_____________ EP151990 19.9574 -129.393 TS 35 1004 0 11 275
1990236N14264 1990 75 EP MM LOWELL 1990-08-31 06:00:00 TS 20.0000 -130.000 35 1006 hurdat_epa main 1748 1748 O_____________ hurdat_epa EP151990 20.0000 -130.000 TS 35 1006 0 11 275
1990236N14264 1990 75 EP MM LOWELL 1990-08-31 09:00:00 TS 20.0574 -130.607 main 1795 1795 P_____________ EP151990 20.0574 -130.607 TS 32 1007 -1 11 275
1990236N14264 1990 75 EP MM LOWELL 1990-08-31 12:00:00 TS 20.1000 -131.200 30 1008 hurdat_epa main 1849 1849 O_____________ hurdat_epa EP151990 20.1000 -131.200 TD 30 1008 -1 11 273
1990236N14264 1990 75 EP MM LOWELL 1990-08-31 15:00:00 TS 20.1147 -131.750 main 1894 1903 P_____________ EP151990 20.1147 -131.750 TD 30 1009 -1 10 270
1990236N14264 1990 75 EP MM LOWELL 1990-08-31 18:00:00 TS 20.1000 -132.300 30 1010 hurdat_epa main 1949 1949 O_____________ hurdat_epa EP151990 20.1000 -132.300 TD 30 1010 -1 11 267
1990236N14264 1990 75 EP MM LOWELL 1990-08-31 21:00:00 TS 20.0574 -132.893 main 2004 2004 P_____________ EP151990 20.0574 -132.893 TD 27 1010 -1 11 265
1990236N14264 1990 75 EP MM LOWELL 1990-09-01 00:00:00 TS 20.0000 -133.500 25 1011 hurdat_epa main 2053 2053 O_____________ hurdat_epa EP151990 20.0000 -133.500 TD 25 1011 -1 11 264
1990236N14264 1990 75 EP MM LOWELL 1990-09-01 03:00:00 TS 19.9421 -134.078 main 2099 2099 P_____________ EP151990 19.9421 -134.078 TD 25 1011 -1 11 265
1990236N14264 1990 75 EP MM LOWELL 1990-09-01 06:00:00 TS 19.9000 -134.700 25 1012 hurdat_epa main 2103 2030 O_____________ hurdat_epa EP151990 19.9000 -134.700 TD 25 1012 -1 13 268
1990236N14264 1990 75 EP MM LOWELL 1990-09-01 09:00:00 TS 19.8909 -135.420 main 2030 1946 P_____________ EP151990 19.8909 -135.420 TD 22 1013 -1 14 270
1990236N14264 1990 75 EP MM LOWELL 1990-09-01 12:00:00 TS 19.9000 -136.200 20 1014 hurdat_epa main 1946 O_____________ hurdat_epa EP151990 19.9000 -136.200 TD 20 1014 -1 15 271

IBTrACS Databaseについて

本データベースは、米国NOAAが公開する1842年以降の世界の熱帯低気圧のベストトラックデータアーカイブInternational Best Track Archive for Climate Stewardship (IBTrACS)を、ウェブで閲覧しやすい形式に変換したものです。

最終更新日:2021-12-03